Tue, 26 Oct 2021 11:20:48 UTC

Information for RPM brotli-1.0.7-11.eln102.ppc64le.rpm

ID21932493
Namebrotli
Version1.0.7
Release11.eln102
Epoch
Archppc64le
SummaryLossless compression algorithm
DescriptionBrotli is a generic-purpose lossless compression algorithm that compresses data using a combination of a modern variant of the LZ77 algorithm, Huffman coding and 2nd order context modeling, with a compression ratio comparable to the best currently available general-purpose compression methods. It is similar in speed with deflate but offers more dense compression.
Build Time2020-06-26 17:04:54 GMT
Size368,585
1b340db790308e5b09bab63b57ce54e7
LicenseMIT
Buildrooteln-build-21209247-1656156
Provides
brotli = 1.0.7-11.eln102
brotli(ppc-64) = 1.0.7-11.eln102
Obsoletes No Obsoletes
Conflicts No Conflicts
Requires
libbrotli(ppc-64) = 1.0.7-11.eln102
libc.so.6()(64bit)
libc.so.6(GLIBC_2.17)(64bit)
libm.so.6()(64bit)
libm.so.6(GLIBC_2.29)(64bit)
rpmlib(CompressedFileNames) <= 3.0.4-1
rpmlib(FileDigests) <= 4.6.0-1
rpmlib(PayloadFilesHavePrefix) <= 4.0-1
rpmlib(PayloadIsZstd) <= 5.4.18-1
rtld(GNU_HASH)
Recommends No Recommends
Suggests No Suggests
Supplements No Supplements
Enhances No Enhances
Files
1 through 4 of 4
Name ascending sort Size
/usr/bin/brotli858,832
/usr/lib/.build-id0
/usr/lib/.build-id/2d0
/usr/lib/.build-id/2d/e2e96085891670ebce855dca5bc918e7b25fa026
Component of
Page:
1 through 50 of 540 >>>
Buildroot descending sort Created State
eln-build-22187899-1885094 2020-08-14 04:02:58 expired
eln-build-22187887-1885094 2020-08-14 04:02:16 expired
eln-build-22187861-1885094 2020-08-14 03:59:19 expired
eln-build-22187833-1885067 2020-08-14 03:55:34 expired
eln-build-22187819-1885067 2020-08-14 03:55:18 expired
eln-build-22187805-1885067 2020-08-14 03:54:57 expired
eln-build-22187803-1885067 2020-08-14 03:54:55 expired
eln-build-22187779-1885067 2020-08-14 03:54:21 expired
eln-build-22169333-1882816 2020-08-13 01:52:32 expired
eln-build-22151171-1881341 2020-08-12 14:32:33 expired
eln-build-22148498-1881341 2020-08-12 13:16:32 expired
eln-build-22124170-1878885 2020-08-11 16:55:15 expired
eln-build-22124095-1878789 2020-08-11 16:40:48 expired
eln-build-22123236-1878024 2020-08-11 14:55:33 expired
eln-build-22122570-1877591 2020-08-11 13:49:37 expired
eln-build-22101661-1875865 2020-08-10 17:10:23 expired
eln-build-22100903-1874996 2020-08-10 14:50:55 expired
eln-build-22099877-1874549 2020-08-10 13:38:27 expired
eln-build-22098898-1873597 2020-08-10 10:49:36 expired
eln-build-22098863-1873474 2020-08-10 10:33:37 expired
eln-build-22098836-1873373 2020-08-10 10:27:07 expired
eln-build-22098677-1873170 2020-08-10 09:56:30 expired
eln-build-22096726-1871702 2020-08-10 05:07:01 expired
eln-build-22092930-1870914 2020-08-10 00:15:12 expired
eln-build-22088513-1869597 2020-08-09 19:22:58 expired
eln-build-22076517-1864561 2020-08-08 19:58:15 expired
eln-build-22063095-1860784 2020-08-07 16:52:24 expired
eln-build-22062543-1860581 2020-08-07 15:58:50 expired
eln-build-22062126-1860581 2020-08-07 15:33:43 expired
eln-build-22058043-1859027 2020-08-07 08:08:17 expired
eln-build-22057099-1858686 2020-08-07 05:51:08 expired
eln-build-22056168-1857702 2020-08-07 02:44:50 expired
eln-build-22053844-1855828 2020-08-06 20:49:18 expired
eln-build-22041241-1849631 2020-08-05 20:53:19 expired
eln-build-22041024-1849561 2020-08-05 20:44:09 expired
eln-build-22040307-1848943 2020-08-05 19:40:26 expired
eln-build-22040144-1848666 2020-08-05 19:15:52 expired
eln-build-22039890-1848461 2020-08-05 18:45:12 expired
eln-build-22037967-1848007 2020-08-05 17:10:37 expired
eln-build-22036027-1847621 2020-08-05 16:29:06 expired
eln-build-22034463-1846944 2020-08-05 15:02:48 expired
eln-build-22034370-1846743 2020-08-05 14:47:45 expired
eln-build-22030678-1845377 2020-08-05 11:29:04 expired
eln-build-22030435-1845179 2020-08-05 11:00:28 expired
eln-build-22030331-1844977 2020-08-05 10:40:35 expired
eln-build-22029801-1844617 2020-08-05 09:48:15 expired
eln-build-22029627-1844462 2020-08-05 09:33:15 expired
eln-build-22029385-1844205 2020-08-05 09:10:49 expired
eln-build-22028588-1843815 2020-08-05 08:16:05 expired
eln-build-22022811-1840795 2020-08-05 00:07:52 expired